Sinai, South Dakota
Current Conditions -  °F | °C
As of 6:15 PM on Wednesday 22 Oct 2014 (Local Time) from KMDS Reporting Station
Overcast Overcast  
Wind Chill: 55°   Ceiling: 500
Heat Index: 55°   Visibility: 10mi
Dew Point: 55°   Wind: 9mph
Humidity: 100%   Direction: 270°W
Pressure: 29.96"   Gusts: NA
Location:  44.24°N, 97.04°W
Report Text: KMDS 222315Z AUTO 27008KT 10SM BKN005 OVC060 13/13 A2996 RMK AO2
Loading
Personal Weather Stations






























Interactive Weather Map
Tropical Storm Tracking
New forecast layout! Learn more

10-Day Weather Forecast

Advertisements
Track Severe Weather on mobile